Time;durP1;ratioP1;P1;durP2;ratioP2;P2;SDS_P1;SDS_P2;PMS_P1;PMS_P2;Temp;Humidity;BMP_temperature;BMP_pressure;BME280_temperature;BME280_humidity;BME280_pressure;Samples;Min_cycle;Max_cycle;Signal;HPM_P1;HPM_P2
2021/08/27 00:02:23;;;;;;;;;;;15.70;93.10;;;15.34;83.51;100570.69;4988268;28;20724;-65
2021/08/27 00:04:50;;;;;;;;;;;15.70;93.30;;;15.32;83.47;100567.34;4987708;28;19930;-65
2021/08/27 00:07:17;;;;;;;;;;;15.60;93.10;;;15.33;83.04;100562.72;4988164;28;20028;-65
2021/08/27 00:09:44;;;;;;;;;;;15.60;93.10;;;15.32;83.06;100561.00;4988073;28;20036;-65
2021/08/27 00:12:12;;;;;;;;;;;15.50;93.20;;;15.31;82.65;100559.34;4988250;28;19956;-65
2021/08/27 00:14:40;;;;;;;;;;;15.50;92.90;;;15.29;82.50;100559.56;4987730;28;19972;-65
2021/08/27 00:17:07;;;;;;;;;;;15.50;93.00;;;15.23;82.60;100560.38;4987801;28;20028;-65
2021/08/27 00:19:34;;;;;;;;;;;15.40;93.00;;;15.23;82.17;100557.66;4977032;23;19930;-69
2021/08/27 00:22:08;;;;;;;;;;;15.40;93.00;;;15.22;82.18;100556.81;4965591;28;20394;-69
2021/08/27 00:24:36;;;;;;;;;;;15.30;93.20;;;15.21;81.97;100560.63;4967976;28;19930;-69
2021/08/27 00:27:03;;;;;;;;;;;15.30;93.10;;;15.19;81.95;100557.25;4968056;28;19937;-68
2021/08/27 00:29:32;;;;;;;;;;;15.30;93.30;;;15.18;82.13;100566.53;4968314;28;20061;-68
2021/08/27 00:31:59;;;;;;;;;;;15.30;93.40;;;15.17;81.94;100566.75;4968229;28;19962;-69
2021/08/27 00:34:26;;;;;;;;;;;15.20;93.20;;;15.11;81.89;100562.13;4963165;28;20554;-68
2021/08/27 00:36:53;;;;;;;;;;;15.20;93.20;;;15.09;81.85;100562.31;4987354;28;20019;-68
2021/08/27 00:39:20;;;;;;;;;;;15.20;93.20;;;15.07;81.94;100556.22;4987853;28;20459;-68
2021/08/27 00:41:48;;;;;;;;;;;15.10;93.30;;;15.05;81.98;100561.06;4987791;28;19932;-68
2021/08/27 00:44:15;;;;;;;;;;;15.10;93.30;;;15.06;81.87;100554.53;4987567;28;19957;-69
2021/08/27 00:46:43;;;;;;;;;;;15.10;93.30;;;15.04;81.61;100552.00;4987112;28;19925;-69
2021/08/27 00:49:10;;;;;;;;;;;15.10;93.20;;;15.00;81.82;100558.13;4987345;28;19969;-69
2021/08/27 00:51:37;;;;;;;;;;;15.00;93.20;;;14.99;81.65;100553.72;4987213;28;19926;-68
2021/08/27 00:54:05;;;;;;;;;;;15.00;93.30;;;14.96;81.61;100551.38;4987250;28;19977;-69
2021/08/27 00:56:32;;;;;;;;;;;14.90;93.30;;;14.93;81.65;100541.69;4986924;28;20020;-68
2021/08/27 00:58:59;;;;;;;;;;;15.00;93.50;;;14.86;81.83;100547.16;4986884;28;19934;-69
2021/08/27 01:01:26;;;;;;;;;;;14.90;93.50;;;14.86;82.15;100552.66;4987065;28;19929;-68
2021/08/27 01:03:55;;;;;;;;;;;14.90;93.50;;;14.89;82.08;100550.53;4987298;28;20409;-69
2021/08/27 01:06:26;;;;;;;;;;;14.90;93.80;;;14.90;82.39;100554.97;4987083;28;20008;-69
2021/08/27 01:08:57;;;;;;;;;;;14.90;93.90;;;14.86;82.74;100555.38;4969778;28;19969;-68
2021/08/27 01:11:29;;;;;;;;;;;14.90;94.20;;;14.88;83.07;100554.34;4987408;28;20473;-69
2021/08/27 01:14:00;;;;;;;;;;;15.00;94.40;;;14.90;83.07;100558.56;4987144;28;19937;-68
2021/08/27 01:16:31;;;;;;;;;;;15.00;94.40;;;14.94;82.98;100561.72;4987084;28;19972;-68
2021/08/27 01:19:12;;;;;;;;;;;15.00;94.30;;;14.91;83.00;100557.50;4987328;28;20152;-68
2021/08/27 01:21:51;;;;;;;;;;;15.00;94.60;;;14.89;83.33;100550.53;4990587;28;19930;-68
2021/08/27 01:24:20;;;;;;;;;;;15.00;94.60;;;14.86;83.20;100563.59;4990345;28;20477;-68
2021/08/27 01:26:49;;;;;;;;;;;15.00;94.60;;;14.86;83.18;100549.91;4990253;28;19926;-68
2021/08/27 01:29:21;;;;;;;;;;;14.90;94.50;;;14.85;83.21;100550.97;4990498;28;20064;-68
2021/08/27 01:31:54;;;;;;;;;;;14.90;94.40;;;14.85;82.85;100556.47;4972860;28;19961;-69
2021/08/27 01:34:35;;;;;;;;;;;15.00;94.30;;;14.82;82.95;100545.91;4990231;28;19930;-69
2021/08/27 01:37:04;;;;;;;;;;;14.90;94.30;;;14.82;83.03;100547.81;4990281;28;19984;-68
2021/08/27 01:39:37;;;;;;;;;;;14.90;94.10;;;14.83;82.98;100536.66;4972916;28;19965;-68
2021/08/27 01:42:06;;;;;;;;;;;15.00;94.10;;;14.81;83.25;100544.25;4990532;28;19930;-69
2021/08/27 01:44:34;;;;;;;;;;;15.00;94.30;;;14.79;83.63;100551.84;4990451;28;20008;-69
2021/08/27 01:47:05;;;;;;;;;;;15.00;94.40;;;14.82;83.50;100545.91;4990514;28;19930;-68
2021/08/27 01:49:34;;;;;;;;;;;15.00;94.40;;;14.80;83.74;100550.75;4990993;28;19932;-69
2021/08/27 01:52:04;;;;;;;;;;;14.90;94.50;;;14.82;84.17;100554.13;4990964;28;20052;-68
2021/08/27 01:54:31;;;;;;;;;;;15.00;94.60;;;14.84;84.17;100549.28;4990850;28;19992;-68
2021/08/27 01:56:59;;;;;;;;;;;15.10;94.90;;;14.85;83.91;100550.16;4990950;28;19948;-68
2021/08/27 01:59:28;;;;;;;;;;;15.00;94.60;;;14.84;84.09;100548.44;4991018;28;19973;-68
2021/08/27 02:01:55;;;;;;;;;;;15.10;94.50;;;14.84;84.11;100553.94;4990777;28;19930;-68
2021/08/27 02:04:23;;;;;;;;;;;15.10;94.60;;;14.83;84.23;100550.34;4990398;28;19926;-69
2021/08/27 02:06:53;;;;;;;;;;;15.10;94.90;;;14.82;84.15;100556.03;4990333;28;19929;-69
2021/08/27 02:09:20;;;;;;;;;;;15.10;94.60;;;14.83;84.04;100547.63;4990670;28;19984;-69
2021/08/27 02:11:48;;;;;;;;;;;15.10;94.50;;;14.82;84.20;100556.03;4990558;28;19926;-68
2021/08/27 02:14:15;;;;;;;;;;;15.00;94.40;;;14.84;83.92;100554.75;4990524;28;20559;-69
2021/08/27 02:16:42;;;;;;;;;;;15.00;94.60;;;14.83;83.66;100564.06;4990309;28;19930;-69
2021/08/27 02:19:09;;;;;;;;;;;15.00;94.40;;;14.81;83.40;100560.69;4990417;28;19936;-68
2021/08/27 02:21:41;;;;;;;;;;;15.00;94.20;;;14.80;83.69;100563.63;4990433;28;19929;-69
2021/08/27 02:24:13;;;;;;;;;;;15.00;94.40;;;14.78;83.34;100561.09;4986916;28;19925;-68
2021/08/27 02:26:43;;;;;;;;;;;14.90;94.20;;;14.77;83.21;100559.38;4989950;28;19930;-68
2021/08/27 02:29:11;;;;;;;;;;;14.90;94.20;;;14.79;83.16;100559.19;4990410;28;19936;-68
2021/08/27 02:31:38;;;;;;;;;;;14.90;94.20;;;14.73;83.15;100562.78;4989269;28;19934;-68
2021/08/27 02:34:07;;;;;;;;;;;14.90;94.30;;;14.74;83.59;100559.84;4990126;28;20024;-68
2021/08/27 02:36:34;;;;;;;;;;;14.90;94.70;;;14.75;83.67;100558.75;4989808;28;20447;-68
2021/08/27 02:39:02;;;;;;;;;;;14.90;94.70;;;14.77;83.44;100558.56;4990137;28;19933;-68
2021/08/27 02:41:30;;;;;;;;;;;14.90;94.60;;;14.76;83.42;100557.72;4989788;28;19930;-69
2021/08/27 02:43:57;;;;;;;;;;;14.90;94.70;;;14.72;83.76;100561.09;4989808;28;19936;-68
2021/08/27 02:46:24;;;;;;;;;;;14.90;94.60;;;14.72;83.77;100559.22;4989424;28;19965;-69
2021/08/27 02:48:52;;;;;;;;;;;14.90;94.60;;;14.72;83.78;100561.94;4989832;28;19929;-69
2021/08/27 02:51:23;;;;;;;;;;;14.90;94.70;;;14.73;84.05;100558.13;4989759;28;19960;-68
2021/08/27 02:53:53;;;;;;;;;;;14.90;94.80;;;14.74;83.96;100554.34;4989808;28;19965;-68
2021/08/27 02:56:24;;;;;;;;;;;14.90;94.90;;;14.71;84.01;100560.25;4971694;28;19929;-68
2021/08/27 02:58:53;;;;;;;;;;;14.90;94.90;;;14.71;84.02;100568.47;4989724;28;19938;-68
2021/08/27 03:01:29;;;;;;;;;;;14.90;95.00;;;14.72;84.19;100570.16;4989586;28;19984;-68
2021/08/27 03:04:12;;;;;;;;;;;14.90;95.00;;;14.69;84.03;100573.31;4972063;28;19930;-68
2021/08/27 03:06:45;;;;;;;;;;;14.90;95.10;;;14.68;84.52;100573.50;4989194;28;19964;-69
2021/08/27 03:09:12;;;;;;;;;;;14.90;95.10;;;14.67;84.71;100572.69;4989621;28;19934;-68
2021/08/27 03:11:46;;;;;;;;;;;15.00;95.00;;;14.72;84.84;100566.59;4989440;28;20382;-68
2021/08/27 03:14:20;;;;;;;;;;;15.00;94.90;;;14.75;84.86;100563.41;4989662;28;19925;-68
2021/08/27 03:16:48;;;;;;;;;;;15.00;95.10;;;14.75;85.11;100557.94;4988864;28;20393;-68
2021/08/27 03:19:19;;;;;;;;;;;15.10;95.20;;;14.74;85.21;100559.84;4989213;28;20012;-68
2021/08/27 03:21:49;;;;;;;;;;;15.10;95.30;;;14.76;85.47;100563.22;4988964;28;19930;-69
2021/08/27 03:24:20;;;;;;;;;;;15.10;95.50;;;14.78;85.56;100561.09;4988796;28;19956;-68
2021/08/27 03:26:52;;;;;;;;;;;15.10;95.40;;;14.81;85.43;100557.94;4988559;28;19957;-69
2021/08/27 03:29:22;;;;;;;;;;;15.10;95.40;;;14.81;85.34;100554.34;4988917;28;19925;-68
2021/08/27 03:31:50;;;;;;;;;;;15.10;95.30;;;14.79;85.55;100562.78;4988933;28;20045;-69
2021/08/27 03:34:18;;;;;;;;;;;15.10;95.30;;;14.78;85.60;100557.53;4988903;28;19941;-68
2021/08/27 03:36:45;;;;;;;;;;;15.20;95.40;;;14.79;85.88;100560.06;4988568;28;19940;-69
2021/08/27 03:39:12;;;;;;;;;;;15.20;95.30;;;14.80;85.98;100564.47;4988935;28;19950;-68
2021/08/27 03:41:42;;;;;;;;;;;15.20;95.50;;;14.72;86.63;100570.16;4988779;28;19932;-69
2021/08/27 03:44:10;;;;;;;;;;;15.20;95.60;;;14.73;86.17;100568.25;4988554;28;19926;-69
2021/08/27 03:46:39;;;;;;;;;;;15.20;95.60;;;14.74;86.24;100554.34;4988329;28;20049;-69
2021/08/27 03:49:06;;;;;;;;;;;15.20;95.60;;;14.72;86.47;100556.47;4988525;28;19965;-68
2021/08/27 03:51:34;;;;;;;;;;;15.20;95.50;;;14.76;86.14;100556.88;4988577;28;19969;-68
2021/08/27 03:54:01;;;;;;;;;;;15.20;95.30;;;14.75;85.98;100556.03;4988428;28;19934;-71
2021/08/27 03:56:29;;;;;;;;;;;15.20;95.50;;;14.74;86.50;100554.34;4987844;28;19930;-67
2021/08/27 03:58:56;;;;;;;;;;;15.10;95.70;;;14.74;86.33;100551.63;4988488;28;19929;-66
2021/08/27 04:01:24;;;;;;;;;;;15.10;95.70;;;14.75;86.42;100561.50;4988271;28;19936;-67
2021/08/27 04:03:53;;;;;;;;;;;15.10;95.70;;;14.78;86.07;100552.88;4988337;28;19934;-67
2021/08/27 04:06:20;;;;;;;;;;;15.10;95.70;;;14.79;86.14;100560.06;4987931;28;19948;-67
2021/08/27 04:08:47;;;;;;;;;;;15.20;95.70;;;14.78;86.46;100552.03;4988608;28;19933;-67
2021/08/27 04:11:17;;;;;;;;;;;15.20;95.60;;;14.74;86.57;100554.34;4988220;28;20009;-67
2021/08/27 04:13:44;;;;;;;;;;;15.20;95.50;;;14.72;86.58;100553.72;4970908;28;19936;-67
2021/08/27 04:16:12;;;;;;;;;;;15.20;95.70;;;14.71;86.86;100557.50;4988206;28;19929;-67
2021/08/27 04:18:39;;;;;;;;;;;15.20;95.80;;;14.71;87.26;100551.19;4976973;28;19927;-67
2021/08/27 04:21:08;;;;;;;;;;;15.20;95.70;;;14.75;87.15;100550.53;4968948;28;19937;-67
2021/08/27 04:23:35;;;;;;;;;;;15.30;95.70;;;14.71;87.37;100557.50;4968224;28;19953;-69
2021/08/27 04:26:02;;;;;;;;;;;15.30;95.70;;;14.70;87.20;100552.22;4968306;28;19929;-67
2021/08/27 04:28:29;;;;;;;;;;;15.30;95.60;;;14.73;87.40;100566.34;4968789;28;19930;-67
2021/08/27 04:30:56;;;;;;;;;;;15.30;95.70;;;14.73;87.28;100560.88;4968679;28;19963;-67
2021/08/27 04:33:23;;;;;;;;;;;15.30;95.50;;;14.78;87.02;100561.09;4968678;28;19936;-67
2021/08/27 04:35:50;;;;;;;;;;;15.30;95.40;;;14.81;86.98;100568.03;4968220;28;19926;-66
2021/08/27 04:38:19;;;;;;;;;;;15.30;95.50;;;14.84;86.94;100559.41;4951514;28;19930;-67
2021/08/27 04:40:46;;;;;;;;;;;15.30;95.60;;;14.78;87.28;100550.13;4968427;28;19958;-67
2021/08/27 04:43:13;;;;;;;;;;;15.30;95.40;;;14.77;87.37;100564.88;4951480;28;20661;-67
2021/08/27 04:45:40;;;;;;;;;;;15.40;95.60;;;14.81;87.22;100557.06;4968342;28;19973;-66
2021/08/27 04:48:07;;;;;;;;;;;15.40;95.40;;;14.82;86.98;100556.88;4968715;28;20013;-67
2021/08/27 04:50:34;;;;;;;;;;;15.40;95.30;;;14.84;86.97;100560.25;4968455;28;20370;-67
2021/08/27 04:53:02;;;;;;;;;;;15.40;95.30;;;14.85;86.83;100563.84;4980526;28;19933;-67
2021/08/27 04:55:30;;;;;;;;;;;15.40;95.20;;;14.81;87.14;100566.16;4988063;28;19929;-67
2021/08/27 04:57:57;;;;;;;;;;;15.40;95.30;;;14.80;87.39;100575.41;4989516;28;20814;-67
2021/08/27 05:00:25;;;;;;;;;;;15.40;95.30;;;14.79;87.37;100571.00;4989596;28;20590;-67
2021/08/27 05:02:52;;;;;;;;;;;15.40;95.30;;;14.82;87.39;100576.06;4989237;28;19934;-68
2021/08/27 05:05:19;;;;;;;;;;;15.40;95.30;;;14.87;87.18;100564.47;4989712;28;20460;-67
2021/08/27 05:07:46;;;;;;;;;;;15.40;95.30;;;14.85;87.41;100567.41;4990432;28;20475;-67
2021/08/27 05:10:14;;;;;;;;;;;15.40;95.30;;;14.81;87.82;100577.13;4991294;28;20045;-68
2021/08/27 05:12:42;;;;;;;;;;;15.50;95.40;;;14.84;87.86;100575.84;4991320;28;20022;-67
2021/08/27 05:15:10;;;;;;;;;;;15.50;95.50;;;14.86;87.83;100580.06;4990654;28;20360;-67
2021/08/27 05:17:38;;;;;;;;;;;15.50;95.40;;;14.87;87.51;100586.41;4991278;28;19930;-67
2021/08/27 05:20:06;;;;;;;;;;;15.50;95.10;;;14.86;87.40;100585.53;4967164;28;20017;-68
2021/08/27 05:22:34;;;;;;;;;;;15.50;95.10;;;14.87;87.49;100586.41;4971731;28;19931;-67
2021/08/27 05:25:01;;;;;;;;;;;15.50;95.00;;;14.88;87.80;100581.75;4961497;28;19945;-67
2021/08/27 05:27:28;;;;;;;;;;;15.60;95.10;;;14.93;87.77;100584.72;4984121;28;19968;-67
2021/08/27 05:29:57;;;;;;;;;;;15.60;95.20;;;14.94;87.66;100580.91;4991591;28;19977;-67
2021/08/27 05:32:24;;;;;;;;;;;15.60;95.00;;;14.95;87.70;100577.13;4962960;28;20319;-67
2021/08/27 05:34:51;;;;;;;;;;;15.60;94.90;;;14.95;87.71;100588.06;4971083;28;19926;-67
2021/08/27 05:37:18;;;;;;;;;;;15.70;95.00;;;14.99;87.63;100586.59;4971237;28;19985;-67
2021/08/27 05:39:46;;;;;;;;;;;15.70;94.80;;;15.02;87.80;100588.88;4971130;28;19988;-67
2021/08/27 05:42:13;;;;;;;;;;;15.80;94.60;;;15.02;87.89;100587.00;4957647;28;20405;-67
2021/08/27 05:44:40;;;;;;;;;;;15.90;94.30;;;15.06;87.70;100590.19;4989723;28;19925;-67
2021/08/27 05:47:09;;;;;;;;;;;16.00;94.10;;;15.10;88.01;100591.44;4973186;28;20384;-67
2021/08/27 05:49:36;;;;;;;;;;;16.00;94.00;;;15.13;88.00;100591.00;4983709;28;20417;-67
2021/08/27 05:52:04;;;;;;;;;;;16.10;94.00;;;15.11;87.93;100601.31;4971027;28;20016;-67
2021/08/27 05:54:32;;;;;;;;;;;16.10;94.00;;;15.11;88.16;100601.31;4970706;28;19937;-67
2021/08/27 05:56:59;;;;;;;;;;;16.00;94.10;;;15.07;88.34;100596.50;4975392;28;20559;-67
2021/08/27 05:59:26;;;;;;;;;;;16.00;94.20;;;15.11;88.18;100592.28;4971218;28;20307;-67
2021/08/27 06:01:53;;;;;;;;;;;16.00;94.20;;;15.15;87.88;100593.53;4970444;28;20009;-67
2021/08/27 06:04:21;;;;;;;;;;;16.00;94.00;;;15.16;88.01;100601.53;4970729;28;19934;-67
2021/08/27 06:06:50;;;;;;;;;;;16.10;94.30;;;15.20;88.01;100601.97;4974348;28;19968;-67
2021/08/27 06:09:17;;;;;;;;;;;16.10;94.10;;;15.19;87.85;100606.63;4990371;28;20662;-67
2021/08/27 06:11:44;;;;;;;;;;;16.20;93.60;;;15.19;88.07;100601.13;4990148;28;19930;-67
2021/08/27 06:14:11;;;;;;;;;;;16.20;93.60;;;15.18;88.35;100596.69;4972425;28;19926;-67
2021/08/27 06:16:38;;;;;;;;;;;16.20;93.50;;;15.23;88.15;100601.53;4978369;28;19937;-67
2021/08/27 06:19:05;;;;;;;;;;;16.30;93.40;;;15.29;88.06;100605.31;4995406;23;20352;-67
2021/08/27 06:21:34;;;;;;;;;;;16.40;93.20;;;15.32;88.08;100604.88;4990936;28;20615;-67
2021/08/27 06:24:02;;;;;;;;;;;16.40;93.00;;;15.35;87.79;100609.97;4990700;28;19926;-67
2021/08/27 06:26:29;;;;;;;;;;;16.50;92.60;;;15.40;87.59;100601.91;4972844;28;20537;-67
2021/08/27 06:28:58;;;;;;;;;;;16.50;92.40;;;15.42;87.74;100589.69;4971196;28;19933;-67
2021/08/27 06:31:25;;;;;;;;;;;16.60;92.40;;;15.42;88.16;100597.91;4964753;28;20000;-67
2021/08/27 06:33:52;;;;;;;;;;;16.70;92.30;;;15.43;87.96;100598.75;4942795;28;19930;-67
2021/08/27 06:36:19;;;;;;;;;;;16.80;91.80;;;15.49;87.80;100589.66;4952444;28;20017;-67
2021/08/27 06:38:47;;;;;;;;;;;16.90;91.50;;;15.53;87.88;100590.91;4973077;28;19926;-67
2021/08/27 06:41:15;;;;;;;;;;;16.80;91.50;;;15.52;87.75;100589.25;4984387;28;19929;-67
2021/08/27 06:43:44;;;;;;;;;;;16.80;91.50;;;15.53;87.87;100584.59;4989969;28;19926;-67
2021/08/27 06:46:14;;;;;;;;;;;16.80;91.70;;;15.55;88.05;100588.78;4989596;28;19933;-67
2021/08/27 06:48:42;;;;;;;;;;;16.80;91.90;;;15.58;87.79;100590.28;4982240;28;19926;-67
2021/08/27 06:51:09;;;;;;;;;;;16.80;92.10;;;15.59;88.37;100594.69;4953271;28;19980;-67
2021/08/27 06:53:36;;;;;;;;;;;16.80;92.40;;;15.62;88.22;100597.00;4956062;28;19933;-67
2021/08/27 06:56:05;;;;;;;;;;;16.80;92.30;;;15.59;87.92;100601.03;4950807;28;20398;-67
2021/08/27 06:58:32;;;;;;;;;;;16.80;92.20;;;15.63;88.17;100599.53;4970939;28;19954;-68
2021/08/27 07:01:00;;;;;;;;;;;16.80;92.10;;;15.68;87.89;100595.31;4989967;28;20459;-67
2021/08/27 07:03:27;;;;;;;;;;;16.90;91.60;;;15.71;87.32;100605.88;4990070;28;19933;-68
2021/08/27 07:05:54;;;;;;;;;;;16.90;91.40;;;15.73;87.94;100617.47;4961979;28;20361;-68
2021/08/27 07:08:22;;;;;;;;;;;16.90;92.00;;;15.71;87.99;100611.34;4970620;28;19926;-68
2021/08/27 07:10:49;;;;;;;;;;;16.90;92.20;;;15.72;87.82;100616.59;4954462;28;19949;-68
2021/08/27 07:13:17;;;;;;;;;;;16.90;92.20;;;15.74;87.23;100620.00;4951056;29;19930;-67
2021/08/27 07:15:45;;;;;;;;;;;16.80;91.90;;;15.73;87.17;100617.47;4950739;29;19940;-68
2021/08/27 07:18:12;;;;;;;;;;;16.70;92.20;;;15.71;87.52;100614.09;4950303;28;19981;-67
2021/08/27 07:20:39;;;;;;;;;;;16.80;92.40;;;15.74;87.81;100605.44;4952819;28;19931;-67
2021/08/27 07:23:06;;;;;;;;;;;16.80;92.50;;;15.77;87.82;100602.28;4970139;28;20029;-67
2021/08/27 07:25:33;;;;;;;;;;;16.80;92.30;;;15.77;88.08;100613.25;4970198;28;20279;-67
2021/08/27 07:28:01;;;;;;;;;;;16.90;92.60;;;15.78;87.67;100604.81;4975861;28;19945;-67
2021/08/27 07:30:29;;;;;;;;;;;16.80;92.20;;;15.81;87.71;100603.53;4988154;28;20401;-67
2021/08/27 07:32:56;;;;;;;;;;;16.90;92.20;;;15.80;88.42;100604.56;4978140;28;19961;-67
2021/08/27 07:35:24;;;;;;;;;;;17.10;92.20;;;15.85;88.46;100607.50;4952275;28;20703;-67
2021/08/27 07:37:51;;;;;;;;;;;17.20;91.70;;;15.88;88.01;100603.47;4970440;28;19934;-67
2021/08/27 07:40:18;;;;;;;;;;;17.30;91.20;;;15.91;88.25;100614.88;4958993;28;20462;-67
2021/08/27 07:42:46;;;;;;;;;;;17.30;91.20;;;15.90;88.56;100615.94;4951197;29;19930;-67
2021/08/27 07:45:15;;;;;;;;;;;17.40;91.20;;;15.90;88.62;100613.19;4950530;28;20662;-67
2021/08/27 07:47:45;;;;;;;;;;;17.40;91.00;;;15.97;88.90;100597.56;4950862;28;19931;-67
2021/08/27 07:50:13;;;;;;;;;;;17.60;90.70;;;16.02;88.75;100610.59;4951897;28;19930;-67
2021/08/27 07:52:41;;;;;;;;;;;17.60;90.70;;;16.04;89.07;100611.22;4933462;29;19986;-67
2021/08/27 07:55:09;;;;;;;;;;;17.60;91.00;;;16.05;89.05;100604.69;4950477;29;20410;-67
2021/08/27 07:57:40;;;;;;;;;;;17.50;91.20;;;16.06;88.32;100605.53;4950776;29;20031;-67
2021/08/27 08:00:09;;;;;;;;;;;17.50;90.70;;;16.04;88.24;100600.25;4950786;29;20283;-67
2021/08/27 08:02:36;;;;;;;;;;;17.40;90.70;;;16.05;88.36;100603.84;4950743;29;19931;-67
2021/08/27 08:05:06;;;;;;;;;;;17.40;91.00;;;16.06;88.47;100611.03;4932978;29;19934;-67
2021/08/27 08:07:33;;;;;;;;;;;17.40;91.30;;;16.05;88.97;100607.44;4950647;29;19934;-67
2021/08/27 08:10:00;;;;;;;;;;;17.40;91.50;;;16.07;88.77;100607.19;4966046;28;19977;-67
2021/08/27 08:12:27;;;;;;;;;;;17.50;91.30;;;16.12;89.04;100608.22;4969654;28;19926;-67
2021/08/27 08:14:54;;;;;;;;;;;17.60;91.00;;;16.18;88.63;100609.25;4968946;28;19984;-67
2021/08/27 08:17:21;;;;;;;;;;;17.70;90.80;;;16.18;88.63;100603.75;4953670;28;20381;-67
2021/08/27 08:19:48;;;;;;;;;;;17.90;90.20;;;16.25;88.07;100604.56;4969754;28;19977;-68
2021/08/27 08:22:20;;;;;;;;;;;18.00;89.60;;;16.26;87.75;100611.75;4969734;28;19989;-67
2021/08/27 08:24:47;;;;;;;;;;;18.00;88.90;;;16.29;87.49;100611.31;4969088;28;19930;-67
2021/08/27 08:27:14;;;;;;;;;;;17.90;89.20;;;16.31;87.38;100609.19;4970063;28;19930;-68
2021/08/27 08:29:41;;;;;;;;;;;17.70;90.00;;;16.32;87.38;100612.78;4961639;28;19930;-67
2021/08/27 08:32:09;;;;;;;;;;;17.70;90.40;;;16.32;86.87;100610.03;4956422;28;19999;-67
2021/08/27 08:34:36;;;;;;;;;;;17.60;90.30;;;16.32;86.90;100610.88;4953909;29;19930;-67
2021/08/27 08:37:04;;;;;;;;;;;17.60;90.30;;;16.32;87.23;100604.56;4972143;28;20021;-67
2021/08/27 08:39:32;;;;;;;;;;;17.70;90.50;;;16.31;86.72;100606.44;4987052;28;19937;-68
2021/08/27 08:41:59;;;;;;;;;;;17.70;89.70;;;16.31;87.02;100594.63;4989975;28;19930;-67
2021/08/27 08:44:27;;;;;;;;;;;17.70;89.90;;;16.36;87.09;100603.03;4975432;28;19934;-68
2021/08/27 08:46:55;;;;;;;;;;;17.80;89.60;;;16.39;86.83;100597.94;4942138;28;20669;-67
2021/08/27 08:49:27;;;;;;;;;;;17.90;89.20;;;16.44;87.19;100597.28;4992998;28;19962;-68
2021/08/27 08:51:55;;;;;;;;;;;18.10;89.10;;;16.44;87.01;100599.19;4971767;28;19930;-67
2021/08/27 08:54:22;;;;;;;;;;;18.00;88.70;;;16.44;86.88;100601.94;4973310;28;20028;-67
2021/08/27 08:56:50;;;;;;;;;;;18.00;89.10;;;16.45;87.72;100603.59;4951943;29;19934;-67
2021/08/27 08:59:18;;;;;;;;;;;18.00;89.70;;;16.52;87.68;100609.91;4953509;28;19982;-67
2021/08/27 09:01:45;;;;;;;;;;;18.20;89.60;;;16.50;87.92;100606.53;4966252;28;20428;-67
2021/08/27 09:04:12;;;;;;;;;;;18.20;88.70;;;16.55;87.49;100603.97;4973062;28;19969;-67
2021/08/27 09:06:39;;;;;;;;;;;18.20;88.90;;;16.60;87.61;100595.88;4972584;28;20024;-67
2021/08/27 09:09:06;;;;;;;;;;;18.30;89.10;;;16.63;87.88;100600.94;4973203;28;19985;-67
2021/08/27 09:11:33;;;;;;;;;;;18.50;88.60;;;16.73;86.93;100600.44;4976374;28;20020;-68
2021/08/27 09:14:03;;;;;;;;;;;18.80;86.90;;;16.83;89.40;100592.59;4975705;28;19975;-68
2021/08/27 09:16:32;;;;;;;;;;;19.00;87.30;;;16.91;88.31;100592.31;4977609;28;20393;-67
2021/08/27 09:19:00;;;;;;;;;;;19.10;86.30;;;16.93;87.50;100586.59;4975265;28;20505;-67
2021/08/27 09:21:40;;;;;;;;;;;19.00;86.10;;;16.93;87.74;100572.84;4971483;28;19931;-68
2021/08/27 09:24:19;;;;;;;;;;;19.00;87.20;;;16.94;86.81;100578.09;4977607;28;20417;-67
2021/08/27 09:26:48;;;;;;;;;;;18.90;86.60;;;16.92;86.00;100590.38;4972519;28;20329;-67
2021/08/27 09:29:35;;;;;;;;;;;18.50;86.50;;;16.90;86.05;100595.28;4972706;28;19945;-67
2021/08/27 09:32:16;;;;;;;;;;;18.60;87.20;;;16.90;85.78;100592.53;4972126;28;20499;-68
2021/08/27 09:34:43;;;;;;;;;;;18.50;87.60;;;16.89;86.01;100599.09;4963531;28;20362;-67
2021/08/27 09:37:10;;;;;;;;;;;18.70;87.20;;;16.91;86.72;100595.06;4953504;29;19938;-67
2021/08/27 09:39:37;;;;;;;;;;;18.90;87.30;;;16.98;85.89;100603.22;4964730;28;19930;-67
2021/08/27 09:42:05;;;;;;;;;;;19.10;85.50;;;17.03;84.68;100594.31;4987190;28;19926;-68
2021/08/27 09:44:32;;;;;;;;;;;19.20;84.80;;;17.09;84.34;100597.00;4991575;28;20393;-67
2021/08/27 09:47:06;;;;;;;;;;;19.30;83.90;;;17.16;84.48;100581.28;4991658;28;20058;-67
2021/08/27 09:49:35;;;;;;;;;;;19.50;83.30;;;17.18;82.90;100589.31;4985877;28;19926;-67
2021/08/27 09:52:04;;;;;;;;;;;19.40;82.50;;;17.21;83.28;100577.88;4975204;28;19929;-67
2021/08/27 09:54:33;;;;;;;;;;;19.40;83.30;;;17.24;82.68;100574.66;4968633;28;20413;-68
2021/08/27 09:57:01;;;;;;;;;;;19.50;82.70;;;17.27;82.71;100568.72;4959746;28;20016;-67
2021/08/27 09:59:34;;;;;;;;;;;19.50;82.90;;;17.28;82.89;100575.03;4972139;28;19930;-67
2021/08/27 10:02:03;;;;;;;;;;;19.40;83.20;;;17.27;84.52;100584.34;4974981;28;19984;-67
2021/08/27 10:04:31;;;;;;;;;;;19.20;84.80;;;17.22;86.65;100590.53;4991479;28;19929;-67
2021/08/27 10:06:58;;;;;;;;;;;19.00;87.20;;;17.19;87.07;100583.59;4991041;28;20035;-67
2021/08/27 10:09:42;;;;;;;;;;;18.90;88.70;;;17.17;88.63;100582.13;4991349;28;20569;-67
2021/08/27 10:12:10;;;;;;;;;;;18.70;89.30;;;17.14;89.13;100580.66;4987203;28;19929;-67
2021/08/27 10:14:37;;;;;;;;;;;18.80;89.70;;;17.16;89.09;100578.53;4981687;28;20724;-67
2021/08/27 10:17:06;;;;;;;;;;;18.80;90.10;;;17.19;91.02;100577.22;4970647;28;20583;-67
2021/08/27 10:19:33;;;;;;;;;;;18.90;90.20;;;17.21;92.30;100577.88;4952052;29;19935;-67
2021/08/27 10:22:00;;;;;;;;;;;19.00;90.60;;;17.26;92.94;100571.69;4957714;28;19927;-67
2021/08/27 10:24:28;;;;;;;;;;;19.10;90.20;;;17.29;93.54;100572.06;4953929;28;19930;-67
2021/08/27 10:26:55;;;;;;;;;;;19.20;90.80;;;17.34;94.65;100557.63;4971447;28;19973;-67
2021/08/27 10:29:22;;;;;;;;;;;19.40;90.60;;;17.37;93.54;100562.66;4950224;29;20402;-67
2021/08/27 10:31:51;;;;;;;;;;;19.40;89.70;;;17.35;91.02;100545.56;4958892;28;20012;-67
2021/08/27 10:34:39;;;;;;;;;;;19.30;88.20;;;17.34;90.09;100557.63;4984387;28;19930;-67
2021/08/27 10:37:06;;;;;;;;;;;19.20;88.30;;;17.31;88.67;100560.84;4971160;28;19985;-67
2021/08/27 10:39:44;;;;;;;;;;;18.90;88.30;;;17.30;88.57;100568.22;4976433;28;19930;-67
2021/08/27 10:42:47;;;;;;;;;;;18.80;89.40;;;17.24;89.50;100560.91;4987583;28;19936;-67
2021/08/27 10:45:15;;;;;;;;;;;18.70;90.50;;;17.19;89.85;100561.59;4990066;28;19925;-67
2021/08/27 10:48:08;;;;;;;;;;;18.60;90.60;;;17.19;89.34;100556.09;4990545;28;19988;-67
2021/08/27 10:50:38;;;;;;;;;;;18.60;90.60;;;17.21;89.37;100555.88;4990296;28;19944;-67
2021/08/27 10:53:30;;;;;;;;;;;18.60;90.80;;;17.20;90.67;100546.75;4984793;28;19933;-67
2021/08/27 10:55:58;;;;;;;;;;;18.70;91.30;;;17.24;90.52;100554.56;4962775;28;19935;-67
2021/08/27 10:58:44;;;;;;;;;;;18.70;91.40;;;17.27;91.72;100563.19;4961221;28;19961;-67
2021/08/27 11:01:28;;;;;;;;;;;18.80;91.90;;;17.23;91.91;100566.63;4970803;28;19940;-67
2021/08/27 11:04:04;;;;;;;;;;;18.80;91.90;;;17.24;91.87;100573.81;4986929;28;19972;-67
2021/08/27 11:06:32;;;;;;;;;;;18.80;91.50;;;17.20;90.65;100566.00;4989873;28;19934;-67
2021/08/27 11:09:16;;;;;;;;;;;18.90;91.00;;;17.20;91.87;100566.00;4972289;28;20060;-67
2021/08/27 11:11:44;;;;;;;;;;;18.90;91.30;;;17.22;92.59;100556.69;4986126;28;19945;-67
2021/08/27 11:14:19;;;;;;;;;;;19.00;91.30;;;17.26;92.47;100558.75;4989823;28;19936;-68
2021/08/27 11:16:56;;;;;;;;;;;19.10;90.90;;;17.31;92.21;100552.59;4957251;28;20548;-67
2021/08/27 11:19:30;;;;;;;;;;;19.20;90.10;;;17.32;91.64;100549.59;4951116;29;19937;-67